sensor_id;sensor_type;location;lat;lon;timestamp;temperature;humidity
25188;DHT22;13141;50.414;8.050;2022-08-19T00:00:01;22.40;99.90
25188;DHT22;13141;50.414;8.050;2022-08-19T00:02:26;22.30;99.90
25188;DHT22;13141;50.414;8.050;2022-08-19T00:04:52;22.30;99.90
25188;DHT22;13141;50.414;8.050;2022-08-19T00:07:21;22.20;99.90
25188;DHT22;13141;50.414;8.050;2022-08-19T00:09:46;22.30;99.90
25188;DHT22;13141;50.414;8.050;2022-08-19T00:12:12;22.20;99.90
25188;DHT22;13141;50.414;8.050;2022-08-19T00:14:38;22.20;99.90
25188;DHT22;13141;50.414;8.050;2022-08-19T00:17:05;22.20;99.90
25188;DHT22;13141;50.414;8.050;2022-08-19T00:19:32;22.20;99.90
25188;DHT22;13141;50.414;8.050;2022-08-19T00:21:58;22.20;99.90
25188;DHT22;13141;50.414;8.050;2022-08-19T00:24:24;22.20;99.90
25188;DHT22;13141;50.414;8.050;2022-08-19T00:26:51;22.20;99.90
25188;DHT22;13141;50.414;8.050;2022-08-19T00:29:18;22.20;99.90
25188;DHT22;13141;50.414;8.050;2022-08-19T00:31:45;22.10;99.90
25188;DHT22;13141;50.414;8.050;2022-08-19T00:34:12;22.10;99.90
25188;DHT22;13141;50.414;8.050;2022-08-19T00:36:38;22.10;99.90
25188;DHT22;13141;50.414;8.050;2022-08-19T00:39:04;22.10;99.90
25188;DHT22;13141;50.414;8.050;2022-08-19T00:41:30;22.10;99.90
25188;DHT22;13141;50.414;8.050;2022-08-19T00:44:11;22.00;99.90
25188;DHT22;13141;50.414;8.050;2022-08-19T00:46:40;22.00;99.90
25188;DHT22;13141;50.414;8.050;2022-08-19T00:49:52;22.00;99.90
25188;DHT22;13141;50.414;8.050;2022-08-19T00:52:12;22.00;99.90
25188;DHT22;13141;50.414;8.050;2022-08-19T00:54:39;22.00;99.90
25188;DHT22;13141;50.414;8.050;2022-08-19T00:57:09;21.90;99.90
25188;DHT22;13141;50.414;8.050;2022-08-19T00:59:37;21.90;99.90
25188;DHT22;13141;50.414;8.050;2022-08-19T01:02:03;21.90;99.90
25188;DHT22;13141;50.414;8.050;2022-08-19T01:04:29;21.90;99.90
25188;DHT22;13141;50.414;8.050;2022-08-19T01:06:56;21.90;99.90
25188;DHT22;13141;50.414;8.050;2022-08-19T01:09:23;21.90;99.90
25188;DHT22;13141;50.414;8.050;2022-08-19T01:11:48;22.00;99.90
25188;DHT22;13141;50.414;8.050;2022-08-19T01:14:15;21.90;99.90
25188;DHT22;13141;50.414;8.050;2022-08-19T01:16:43;21.80;99.90
25188;DHT22;13141;50.414;8.050;2022-08-19T01:19:27;21.80;99.90
25188;DHT22;13141;50.414;8.050;2022-08-19T01:22:00;21.80;99.90
25188;DHT22;13141;50.414;8.050;2022-08-19T01:24:27;21.80;99.90
25188;DHT22;13141;50.414;8.050;2022-08-19T01:26:53;22.00;99.90
25188;DHT22;13141;50.414;8.050;2022-08-19T01:29:20;21.80;99.90
25188;DHT22;13141;50.414;8.050;2022-08-19T01:31:45;21.80;99.90
25188;DHT22;13141;50.414;8.050;2022-08-19T01:34:11;21.70;99.90
25188;DHT22;13141;50.414;8.050;2022-08-19T01:36:40;21.70;99.90
25188;DHT22;13141;50.414;8.050;2022-08-19T01:39:09;21.70;99.90
25188;DHT22;13141;50.414;8.050;2022-08-19T01:41:35;21.90;99.90
25188;DHT22;13141;50.414;8.050;2022-08-19T01:44:02;21.70;99.90
25188;DHT22;13141;50.414;8.050;2022-08-19T01:46:30;21.70;99.90
25188;DHT22;13141;50.414;8.050;2022-08-19T01:48:56;21.60;99.90
25188;DHT22;13141;50.414;8.050;2022-08-19T01:51:21;21.70;99.90
25188;DHT22;13141;50.414;8.050;2022-08-19T01:53:49;21.60;99.90
25188;DHT22;13141;50.414;8.050;2022-08-19T01:56:15;21.60;99.90
25188;DHT22;13141;50.414;8.050;2022-08-19T01:58:44;21.50;99.90
25188;DHT22;13141;50.414;8.050;2022-08-19T02:01:11;21.50;99.90
25188;DHT22;13141;50.414;8.050;2022-08-19T02:03:37;21.40;99.90
25188;DHT22;13141;50.414;8.050;2022-08-19T02:06:04;21.40;99.90
25188;DHT22;13141;50.414;8.050;2022-08-19T02:08:32;21.50;99.90
25188;DHT22;13141;50.414;8.050;2022-08-19T02:10:58;21.50;99.90
25188;DHT22;13141;50.414;8.050;2022-08-19T02:13:25;21.40;99.90
25188;DHT22;13141;50.414;8.050;2022-08-19T02:15:50;21.30;99.90
25188;DHT22;13141;50.414;8.050;2022-08-19T02:18:16;21.10;99.90
25188;DHT22;13141;50.414;8.050;2022-08-19T02:20:43;20.90;99.90
25188;DHT22;13141;50.414;8.050;2022-08-19T02:23:11;20.80;99.90
25188;DHT22;13141;50.414;8.050;2022-08-19T02:25:37;20.70;99.90
25188;DHT22;13141;50.414;8.050;2022-08-19T02:28:03;20.70;99.90
25188;DHT22;13141;50.414;8.050;2022-08-19T02:30:29;20.80;99.90
25188;DHT22;13141;50.414;8.050;2022-08-19T02:32:54;20.90;99.90
25188;DHT22;13141;50.414;8.050;2022-08-19T02:35:20;20.80;99.90
25188;DHT22;13141;50.414;8.050;2022-08-19T02:37:46;20.90;99.90
25188;DHT22;13141;50.414;8.050;2022-08-19T02:40:31;21.00;99.90
25188;DHT22;13141;50.414;8.050;2022-08-19T02:43:03;21.10;99.90
25188;DHT22;13141;50.414;8.050;2022-08-19T02:45:33;21.10;99.90
25188;DHT22;13141;50.414;8.050;2022-08-19T02:47:58;21.00;99.90
25188;DHT22;13141;50.414;8.050;2022-08-19T02:50:24;21.00;99.90
25188;DHT22;13141;50.414;8.050;2022-08-19T02:52:49;20.90;99.90
25188;DHT22;13141;50.414;8.050;2022-08-19T02:55:15;21.00;99.90
25188;DHT22;13141;50.414;8.050;2022-08-19T02:57:41;21.00;99.90
25188;DHT22;13141;50.414;8.050;2022-08-19T03:00:08;20.80;99.90
25188;DHT22;13141;50.414;8.050;2022-08-19T03:02:38;20.80;99.90
25188;DHT22;13141;50.414;8.050;2022-08-19T03:05:05;20.80;99.90
25188;DHT22;13141;50.414;8.050;2022-08-19T03:07:31;20.80;99.90
25188;DHT22;13141;50.414;8.050;2022-08-19T03:09:57;20.80;99.90
25188;DHT22;13141;50.414;8.050;2022-08-19T03:12:22;20.80;99.90
25188;DHT22;13141;50.414;8.050;2022-08-19T03:14:48;20.80;99.90
25188;DHT22;13141;50.414;8.050;2022-08-19T03:17:13;20.80;99.90
25188;DHT22;13141;50.414;8.050;2022-08-19T03:19:39;20.60;99.90
25188;DHT22;13141;50.414;8.050;2022-08-19T03:22:05;20.50;99.90
25188;DHT22;13141;50.414;8.050;2022-08-19T03:24:31;20.40;99.90
25188;DHT22;13141;50.414;8.050;2022-08-19T03:26:58;20.40;99.90
25188;DHT22;13141;50.414;8.050;2022-08-19T03:29:25;20.40;99.90
25188;DHT22;13141;50.414;8.050;2022-08-19T03:31:51;20.40;99.90
25188;DHT22;13141;50.414;8.050;2022-08-19T03:34:22;20.40;99.90
25188;DHT22;13141;50.414;8.050;2022-08-19T03:36:48;20.50;99.90
25188;DHT22;13141;50.414;8.050;2022-08-19T03:39:14;20.50;99.90
25188;DHT22;13141;50.414;8.050;2022-08-19T03:41:42;20.50;99.90
25188;DHT22;13141;50.414;8.050;2022-08-19T03:44:08;20.50;99.90
25188;DHT22;13141;50.414;8.050;2022-08-19T03:46:34;20.50;99.90
25188;DHT22;13141;50.414;8.050;2022-08-19T03:49:03;20.50;99.90
25188;DHT22;13141;50.414;8.050;2022-08-19T03:51:36;20.50;99.90
25188;DHT22;13141;50.414;8.050;2022-08-19T03:54:05;20.30;99.90
25188;DHT22;13141;50.414;8.050;2022-08-19T03:56:32;20.30;99.90
25188;DHT22;13141;50.414;8.050;2022-08-19T03:58:58;20.20;99.90
25188;DHT22;13141;50.414;8.050;2022-08-19T04:01:28;20.40;99.90
25188;DHT22;13141;50.414;8.050;2022-08-19T04:03:56;20.30;99.90
25188;DHT22;13141;50.414;8.050;2022-08-19T04:08:51;20.30;99.90
25188;DHT22;13141;50.414;8.050;2022-08-19T04:11:22;20.20;99.90
25188;DHT22;13141;50.414;8.050;2022-08-19T04:13:49;20.20;99.90
25188;DHT22;13141;50.414;8.050;2022-08-19T04:16:17;20.20;99.90
25188;DHT22;13141;50.414;8.050;2022-08-19T04:18:43;20.10;99.90
25188;DHT22;13141;50.414;8.050;2022-08-19T04:21:16;20.10;99.90
25188;DHT22;13141;50.414;8.050;2022-08-19T04:23:42;20.40;99.90
25188;DHT22;13141;50.414;8.050;2022-08-19T04:26:12;20.20;99.90
25188;DHT22;13141;50.414;8.050;2022-08-19T04:28:38;20.20;99.90
25188;DHT22;13141;50.414;8.050;2022-08-19T04:31:04;20.20;99.90
25188;DHT22;13141;50.414;8.050;2022-08-19T04:33:30;20.20;99.90
25188;DHT22;13141;50.414;8.050;2022-08-19T04:35:56;20.10;99.90
25188;DHT22;13141;50.414;8.050;2022-08-19T04:38:23;20.10;99.90
25188;DHT22;13141;50.414;8.050;2022-08-19T04:40:50;20.00;99.90
25188;DHT22;13141;50.414;8.050;2022-08-19T04:43:35;19.90;99.90
25188;DHT22;13141;50.414;8.050;2022-08-19T04:46:09;19.80;99.90
25188;DHT22;13141;50.414;8.050;2022-08-19T04:48:36;19.80;99.90
25188;DHT22;13141;50.414;8.050;2022-08-19T04:51:08;19.80;99.90
25188;DHT22;13141;50.414;8.050;2022-08-19T04:53:35;19.80;99.90
25188;DHT22;13141;50.414;8.050;2022-08-19T04:56:06;19.80;99.90
25188;DHT22;13141;50.414;8.050;2022-08-19T04:58:33;19.80;99.90
25188;DHT22;13141;50.414;8.050;2022-08-19T05:00:58;19.70;99.90
25188;DHT22;13141;50.414;8.050;2022-08-19T05:03:25;19.70;99.90
25188;DHT22;13141;50.414;8.050;2022-08-19T05:05:51;19.80;99.90
25188;DHT22;13141;50.414;8.050;2022-08-19T05:08:18;19.90;99.90
25188;DHT22;13141;50.414;8.050;2022-08-19T05:10:46;20.00;99.90
25188;DHT22;13141;50.414;8.050;2022-08-19T05:13:13;19.90;99.90
25188;DHT22;13141;50.414;8.050;2022-08-19T05:15:39;20.20;99.90
25188;DHT22;13141;50.414;8.050;2022-08-19T05:18:04;20.10;99.90
25188;DHT22;13141;50.414;8.050;2022-08-19T05:20:48;19.90;99.90
25188;DHT22;13141;50.414;8.050;2022-08-19T05:23:32;19.90;99.90
25188;DHT22;13141;50.414;8.050;2022-08-19T05:25:58;19.80;99.90
25188;DHT22;13141;50.414;8.050;2022-08-19T05:28:23;19.80;99.90
25188;DHT22;13141;50.414;8.050;2022-08-19T05:30:49;19.80;99.90
25188;DHT22;13141;50.414;8.050;2022-08-19T05:33:17;19.90;99.90
25188;DHT22;13141;50.414;8.050;2022-08-19T05:35:42;19.80;99.90
25188;DHT22;13141;50.414;8.050;2022-08-19T05:38:09;19.90;99.90
25188;DHT22;13141;50.414;8.050;2022-08-19T05:40:37;19.90;99.90
25188;DHT22;13141;50.414;8.050;2022-08-19T05:43:05;20.00;99.90
25188;DHT22;13141;50.414;8.050;2022-08-19T05:45:31;20.20;99.90
25188;DHT22;13141;50.414;8.050;2022-08-19T05:47:57;19.90;99.90
25188;DHT22;13141;50.414;8.050;2022-08-19T05:50:24;19.90;99.90
25188;DHT22;13141;50.414;8.050;2022-08-19T05:52:51;19.90;99.90
25188;DHT22;13141;50.414;8.050;2022-08-19T05:55:17;20.00;99.90
25188;DHT22;13141;50.414;8.050;2022-08-19T05:57:45;20.30;99.90
25188;DHT22;13141;50.414;8.050;2022-08-19T06:00:12;20.00;99.90
25188;DHT22;13141;50.414;8.050;2022-08-19T06:02:38;20.10;99.90
25188;DHT22;13141;50.414;8.050;2022-08-19T06:05:04;20.20;99.90
25188;DHT22;13141;50.414;8.050;2022-08-19T06:07:32;20.20;99.90
25188;DHT22;13141;50.414;8.050;2022-08-19T06:09:58;20.30;99.90
25188;DHT22;13141;50.414;8.050;2022-08-19T06:12:23;20.30;99.90
25188;DHT22;13141;50.414;8.050;2022-08-19T06:14:54;20.20;99.90
25188;DHT22;13141;50.414;8.050;2022-08-19T06:17:20;20.20;99.90
25188;DHT22;13141;50.414;8.050;2022-08-19T06:19:50;20.30;99.90
25188;DHT22;13141;50.414;8.050;2022-08-19T06:22:15;20.40;99.90
25188;DHT22;13141;50.414;8.050;2022-08-19T06:24:41;20.60;99.90
25188;DHT22;13141;50.414;8.050;2022-08-19T06:27:07;20.40;99.90
25188;DHT22;13141;50.414;8.050;2022-08-19T06:29:33;20.40;99.90
25188;DHT22;13141;50.414;8.050;2022-08-19T06:32:01;20.30;99.90
25188;DHT22;13141;50.414;8.050;2022-08-19T06:34:29;19.90;99.90
25188;DHT22;13141;50.414;8.050;2022-08-19T06:36:56;20.40;99.90
25188;DHT22;13141;50.414;8.050;2022-08-19T06:39:25;20.30;99.90
25188;DHT22;13141;50.414;8.050;2022-08-19T06:41:56;20.30;99.90
25188;DHT22;13141;50.414;8.050;2022-08-19T06:44:24;20.40;99.90
25188;DHT22;13141;50.414;8.050;2022-08-19T06:46:51;20.40;99.90
25188;DHT22;13141;50.414;8.050;2022-08-19T06:49:17;20.80;99.90
25188;DHT22;13141;50.414;8.050;2022-08-19T06:51:45;20.60;99.90
25188;DHT22;13141;50.414;8.050;2022-08-19T06:54:13;20.70;99.90
25188;DHT22;13141;50.414;8.050;2022-08-19T06:56:39;20.80;99.90
25188;DHT22;13141;50.414;8.050;2022-08-19T06:59:15;21.00;99.90
25188;DHT22;13141;50.414;8.050;2022-08-19T07:01:44;21.10;99.90
25188;DHT22;13141;50.414;8.050;2022-08-19T07:04:13;21.30;99.90
25188;DHT22;13141;50.414;8.050;2022-08-19T07:06:39;21.30;99.90
25188;DHT22;13141;50.414;8.050;2022-08-19T07:09:05;21.20;99.90
25188;DHT22;13141;50.414;8.050;2022-08-19T07:11:31;21.30;99.90
25188;DHT22;13141;50.414;8.050;2022-08-19T07:13:58;21.40;99.90
25188;DHT22;13141;50.414;8.050;2022-08-19T07:16:24;21.50;99.90
25188;DHT22;13141;50.414;8.050;2022-08-19T07:18:50;21.60;99.90
25188;DHT22;13141;50.414;8.050;2022-08-19T07:21:22;21.70;99.90
25188;DHT22;13141;50.414;8.050;2022-08-19T07:23:49;21.80;99.90
25188;DHT22;13141;50.414;8.050;2022-08-19T07:26:19;22.00;99.90
25188;DHT22;13141;50.414;8.050;2022-08-19T07:28:47;22.10;99.90
25188;DHT22;13141;50.414;8.050;2022-08-19T07:31:16;22.20;99.90
25188;DHT22;13141;50.414;8.050;2022-08-19T07:33:44;22.40;99.90
25188;DHT22;13141;50.414;8.050;2022-08-19T07:36:11;22.50;99.90
25188;DHT22;13141;50.414;8.050;2022-08-19T07:38:39;22.70;99.90
25188;DHT22;13141;50.414;8.050;2022-08-19T07:41:06;22.90;99.90
25188;DHT22;13141;50.414;8.050;2022-08-19T07:43:32;23.10;99.90
25188;DHT22;13141;50.414;8.050;2022-08-19T07:45:58;23.30;99.90
25188;DHT22;13141;50.414;8.050;2022-08-19T07:48:25;23.50;99.90
25188;DHT22;13141;50.414;8.050;2022-08-19T07:50:53;23.60;99.90
25188;DHT22;13141;50.414;8.050;2022-08-19T07:53:20;23.90;99.90
25188;DHT22;13141;50.414;8.050;2022-08-19T07:55:46;23.90;99.90
25188;DHT22;13141;50.414;8.050;2022-08-19T07:58:14;24.10;99.90
25188;DHT22;13141;50.414;8.050;2022-08-19T08:00:42;24.40;99.90
25188;DHT22;13141;50.414;8.050;2022-08-19T08:03:08;24.60;99.90
25188;DHT22;13141;50.414;8.050;2022-08-19T08:05:34;24.80;99.90
25188;DHT22;13141;50.414;8.050;2022-08-19T08:08:18;25.00;99.90
25188;DHT22;13141;50.414;8.050;2022-08-19T08:11:04;25.00;99.90
25188;DHT22;13141;50.414;8.050;2022-08-19T08:13:30;25.20;99.90
25188;DHT22;13141;50.414;8.050;2022-08-19T08:15:56;25.30;99.90
25188;DHT22;13141;50.414;8.050;2022-08-19T08:18:23;25.50;99.90
25188;DHT22;13141;50.414;8.050;2022-08-19T08:20:49;25.60;99.90
25188;DHT22;13141;50.414;8.050;2022-08-19T08:23:14;25.80;99.90
25188;DHT22;13141;50.414;8.050;2022-08-19T08:25:55;25.90;99.90
25188;DHT22;13141;50.414;8.050;2022-08-19T08:28:22;26.20;99.90
25188;DHT22;13141;50.414;8.050;2022-08-19T08:30:49;26.50;99.90
25188;DHT22;13141;50.414;8.050;2022-08-19T08:33:20;26.60;99.90
25188;DHT22;13141;50.414;8.050;2022-08-19T08:35:46;26.60;99.90
25188;DHT22;13141;50.414;8.050;2022-08-19T08:38:12;26.50;99.90
25188;DHT22;13141;50.414;8.050;2022-08-19T08:43:22;26.70;99.90
25188;DHT22;13141;50.414;8.050;2022-08-19T08:47:01;26.80;99.70
25188;DHT22;13141;50.414;8.050;2022-08-19T08:49:18;26.60;99.20
25188;DHT22;13141;50.414;8.050;2022-08-19T08:51:56;26.50;99.20
25188;DHT22;13141;50.414;8.050;2022-08-19T08:54:30;26.70;99.00
25188;DHT22;13141;50.414;8.050;2022-08-19T08:56:57;26.90;99.10
25188;DHT22;13141;50.414;8.050;2022-08-19T08:59:33;27.30;99.20
25188;DHT22;13141;50.414;8.050;2022-08-19T09:02:00;27.60;98.10
25188;DHT22;13141;50.414;8.050;2022-08-19T09:04:25;27.70;98.00
25188;DHT22;13141;50.414;8.050;2022-08-19T09:07:14;27.70;98.20
25188;DHT22;13141;50.414;8.050;2022-08-19T09:09:46;27.80;97.60
25188;DHT22;13141;50.414;8.050;2022-08-19T09:12:18;27.90;98.00
25188;DHT22;13141;50.414;8.050;2022-08-19T09:14:52;28.20;98.20
25188;DHT22;13141;50.414;8.050;2022-08-19T09:17:25;28.40;97.00
25188;DHT22;13141;50.414;8.050;2022-08-19T09:20:19;28.60;96.50
25188;DHT22;13141;50.414;8.050;2022-08-19T09:22:45;28.80;96.10
25188;DHT22;13141;50.414;8.050;2022-08-19T09:25:13;28.70;96.80
25188;DHT22;13141;50.414;8.050;2022-08-19T09:27:41;28.90;96.50
25188;DHT22;13141;50.414;8.050;2022-08-19T09:30:10;29.20;95.60
25188;DHT22;13141;50.414;8.050;2022-08-19T09:32:36;28.70;95.50
25188;DHT22;13141;50.414;8.050;2022-08-19T09:35:04;29.00;95.50
25188;DHT22;13141;50.414;8.050;2022-08-19T09:37:31;29.10;95.20
25188;DHT22;13141;50.414;8.050;2022-08-19T09:39:57;29.10;94.90
25188;DHT22;13141;50.414;8.050;2022-08-19T09:42:23;29.40;94.80
25188;DHT22;13141;50.414;8.050;2022-08-19T09:44:48;29.70;93.80
25188;DHT22;13141;50.414;8.050;2022-08-19T09:47:14;29.80;93.80
25188;DHT22;13141;50.414;8.050;2022-08-19T09:49:40;29.80;93.20
25188;DHT22;13141;50.414;8.050;2022-08-19T09:52:08;29.70;92.70
25188;DHT22;13141;50.414;8.050;2022-08-19T09:54:34;29.60;92.30
25188;DHT22;13141;50.414;8.050;2022-08-19T09:57:00;29.30;92.70
25188;DHT22;13141;50.414;8.050;2022-08-19T09:59:26;29.90;91.60
25188;DHT22;13141;50.414;8.050;2022-08-19T10:01:52;30.50;91.00
25188;DHT22;13141;50.414;8.050;2022-08-19T10:04:18;30.80;90.70
25188;DHT22;13141;50.414;8.050;2022-08-19T10:06:46;31.20;91.20
25188;DHT22;13141;50.414;8.050;2022-08-19T10:09:14;31.10;89.80
25188;DHT22;13141;50.414;8.050;2022-08-19T10:11:41;30.60;88.70
25188;DHT22;13141;50.414;8.050;2022-08-19T10:14:07;30.90;88.10
25188;DHT22;13141;50.414;8.050;2022-08-19T10:16:35;31.10;87.60
25188;DHT22;13141;50.414;8.050;2022-08-19T10:19:01;31.30;86.30
25188;DHT22;13141;50.414;8.050;2022-08-19T10:21:29;31.50;85.30
25188;DHT22;13141;50.414;8.050;2022-08-19T10:23:58;31.90;84.30
25188;DHT22;13141;50.414;8.050;2022-08-19T10:26:29;32.00;81.70
25188;DHT22;13141;50.414;8.050;2022-08-19T10:28:56;32.30;82.40
25188;DHT22;13141;50.414;8.050;2022-08-19T10:31:25;32.40;81.30
25188;DHT22;13141;50.414;8.050;2022-08-19T10:33:51;32.80;80.60
25188;DHT22;13141;50.414;8.050;2022-08-19T10:36:28;32.90;76.40
25188;DHT22;13141;50.414;8.050;2022-08-19T10:38:57;32.70;75.60
25188;DHT22;13141;50.414;8.050;2022-08-19T10:41:27;32.20;78.10
25188;DHT22;13141;50.414;8.050;2022-08-19T10:43:55;32.50;75.10
25188;DHT22;13141;50.414;8.050;2022-08-19T10:46:23;33.00;73.60
25188;DHT22;13141;50.414;8.050;2022-08-19T10:48:50;33.20;75.20
25188;DHT22;13141;50.414;8.050;2022-08-19T10:51:15;33.60;72.70
25188;DHT22;13141;50.414;8.050;2022-08-19T10:54:00;33.50;72.80
25188;DHT22;13141;50.414;8.050;2022-08-19T10:56:27;33.80;72.20
25188;DHT22;13141;50.414;8.050;2022-08-19T10:59:13;34.20;73.60
25188;DHT22;13141;50.414;8.050;2022-08-19T11:01:40;33.90;71.50
25188;DHT22;13141;50.414;8.050;2022-08-19T11:04:06;33.10;69.00
25188;DHT22;13141;50.414;8.050;2022-08-19T11:06:36;32.80;70.10
25188;DHT22;13141;50.414;8.050;2022-08-19T11:09:02;33.40;71.00
25188;DHT22;13141;50.414;8.050;2022-08-19T11:11:27;33.90;70.20
25188;DHT22;13141;50.414;8.050;2022-08-19T11:13:53;34.30;69.60
25188;DHT22;13141;50.414;8.050;2022-08-19T11:16:23;34.70;64.10
25188;DHT22;13141;50.414;8.050;2022-08-19T11:18:52;35.00;65.10
25188;DHT22;13141;50.414;8.050;2022-08-19T11:21:28;35.40;66.60
25188;DHT22;13141;50.414;8.050;2022-08-19T11:23:57;35.70;62.50
25188;DHT22;13141;50.414;8.050;2022-08-19T11:26:24;35.90;62.60
25188;DHT22;13141;50.414;8.050;2022-08-19T11:28:50;36.10;63.40
25188;DHT22;13141;50.414;8.050;2022-08-19T11:31:25;35.80;63.90
25188;DHT22;13141;50.414;8.050;2022-08-19T11:33:51;35.90;59.60
25188;DHT22;13141;50.414;8.050;2022-08-19T11:36:19;36.10;58.50
25188;DHT22;13141;50.414;8.050;2022-08-19T11:38:47;35.30;57.70
25188;DHT22;13141;50.414;8.050;2022-08-19T11:41:15;35.20;58.50
25188;DHT22;13141;50.414;8.050;2022-08-19T11:43:41;35.40;59.40
25188;DHT22;13141;50.414;8.050;2022-08-19T11:46:09;35.70;59.40
25188;DHT22;13141;50.414;8.050;2022-08-19T11:48:36;35.90;59.50
25188;DHT22;13141;50.414;8.050;2022-08-19T11:51:05;35.50;57.90
25188;DHT22;13141;50.414;8.050;2022-08-19T11:53:32;35.10;58.20
25188;DHT22;13141;50.414;8.050;2022-08-19T11:55:58;34.70;57.60
25188;DHT22;13141;50.414;8.050;2022-08-19T11:58:24;35.20;58.90
25188;DHT22;13141;50.414;8.050;2022-08-19T12:00:50;35.50;57.00
25188;DHT22;13141;50.414;8.050;2022-08-19T12:03:16;35.70;57.60
25188;DHT22;13141;50.414;8.050;2022-08-19T12:05:43;35.70;57.30
25188;DHT22;13141;50.414;8.050;2022-08-19T12:08:09;35.70;56.00
25188;DHT22;13141;50.414;8.050;2022-08-19T12:10:35;35.80;55.30
25188;DHT22;13141;50.414;8.050;2022-08-19T12:13:01;36.00;55.60
25188;DHT22;13141;50.414;8.050;2022-08-19T12:15:27;36.40;53.70
25188;DHT22;13141;50.414;8.050;2022-08-19T12:17:54;36.70;55.00
25188;DHT22;13141;50.414;8.050;2022-08-19T12:20:23;36.90;54.60
25188;DHT22;13141;50.414;8.050;2022-08-19T12:22:49;36.80;53.80
25188;DHT22;13141;50.414;8.050;2022-08-19T12:25:16;36.70;53.40
25188;DHT22;13141;50.414;8.050;2022-08-19T12:27:42;36.70;52.50
25188;DHT22;13141;50.414;8.050;2022-08-19T12:30:10;36.90;53.20
25188;DHT22;13141;50.414;8.050;2022-08-19T12:32:37;36.70;54.10
25188;DHT22;13141;50.414;8.050;2022-08-19T12:35:03;36.40;52.40
25188;DHT22;13141;50.414;8.050;2022-08-19T12:37:29;36.10;50.90
25188;DHT22;13141;50.414;8.050;2022-08-19T12:39:55;36.60;51.50
25188;DHT22;13141;50.414;8.050;2022-08-19T12:42:20;36.50;53.20
25188;DHT22;13141;50.414;8.050;2022-08-19T12:44:47;36.60;53.60
25188;DHT22;13141;50.414;8.050;2022-08-19T12:47:13;36.60;52.60
25188;DHT22;13141;50.414;8.050;2022-08-19T12:49:40;36.50;52.60
25188;DHT22;13141;50.414;8.050;2022-08-19T12:52:07;36.60;53.30
25188;DHT22;13141;50.414;8.050;2022-08-19T12:54:34;36.70;53.40
25188;DHT22;13141;50.414;8.050;2022-08-19T12:57:04;36.90;53.50
25188;DHT22;13141;50.414;8.050;2022-08-19T12:59:29;37.20;54.00
25188;DHT22;13141;50.414;8.050;2022-08-19T13:01:55;37.70;53.20
25188;DHT22;13141;50.414;8.050;2022-08-19T13:04:20;37.80;52.40
25188;DHT22;13141;50.414;8.050;2022-08-19T13:06:46;37.60;50.90
25188;DHT22;13141;50.414;8.050;2022-08-19T13:09:12;37.20;50.90
25188;DHT22;13141;50.414;8.050;2022-08-19T13:11:37;36.70;51.50
25188;DHT22;13141;50.414;8.050;2022-08-19T13:14:04;36.20;51.40
25188;DHT22;13141;50.414;8.050;2022-08-19T13:16:30;35.80;50.50
25188;DHT22;13141;50.414;8.050;2022-08-19T13:18:56;35.80;50.20
25188;DHT22;13141;50.414;8.050;2022-08-19T13:21:26;36.00;51.40
25188;DHT22;13141;50.414;8.050;2022-08-19T13:23:53;36.20;51.50
25188;DHT22;13141;50.414;8.050;2022-08-19T13:26:19;36.40;50.70
25188;DHT22;13141;50.414;8.050;2022-08-19T13:28:45;36.60;51.40
25188;DHT22;13141;50.414;8.050;2022-08-19T13:31:33;37.20;51.60
25188;DHT22;13141;50.414;8.050;2022-08-19T13:34:30;37.40;49.60
25188;DHT22;13141;50.414;8.050;2022-08-19T13:36:56;37.20;48.80
25188;DHT22;13141;50.414;8.050;2022-08-19T13:39:21;36.80;50.10
25188;DHT22;13141;50.414;8.050;2022-08-19T13:41:48;36.80;49.80
25188;DHT22;13141;50.414;8.050;2022-08-19T13:44:16;36.50;49.20
25188;DHT22;13141;50.414;8.050;2022-08-19T13:46:43;36.20;48.40
25188;DHT22;13141;50.414;8.050;2022-08-19T13:49:10;35.80;47.40
25188;DHT22;13141;50.414;8.050;2022-08-19T13:51:37;35.70;49.30
25188;DHT22;13141;50.414;8.050;2022-08-19T13:54:05;35.70;47.50
25188;DHT22;13141;50.414;8.050;2022-08-19T13:56:31;35.90;48.50
25188;DHT22;13141;50.414;8.050;2022-08-19T13:58:56;36.20;48.70
25188;DHT22;13141;50.414;8.050;2022-08-19T14:01:23;36.10;47.50
25188;DHT22;13141;50.414;8.050;2022-08-19T14:03:49;36.20;48.60
25188;DHT22;13141;50.414;8.050;2022-08-19T14:06:15;36.30;49.10
25188;DHT22;13141;50.414;8.050;2022-08-19T14:08:42;36.30;49.10
25188;DHT22;13141;50.414;8.050;2022-08-19T14:11:08;36.40;49.50
25188;DHT22;13141;50.414;8.050;2022-08-19T14:13:34;36.60;49.20
25188;DHT22;13141;50.414;8.050;2022-08-19T14:15:59;36.40;48.10
25188;DHT22;13141;50.414;8.050;2022-08-19T14:18:25;36.60;49.10
25188;DHT22;13141;50.414;8.050;2022-08-19T14:20:51;36.90;48.50
25188;DHT22;13141;50.414;8.050;2022-08-19T14:23:17;36.80;48.20
25188;DHT22;13141;50.414;8.050;2022-08-19T14:25:43;36.80;47.80
25188;DHT22;13141;50.414;8.050;2022-08-19T14:28:09;36.60;47.00
25188;DHT22;13141;50.414;8.050;2022-08-19T14:30:35;36.50;48.30
25188;DHT22;13141;50.414;8.050;2022-08-19T14:33:03;36.60;48.30
25188;DHT22;13141;50.414;8.050;2022-08-19T14:35:32;36.60;48.30
25188;DHT22;13141;50.414;8.050;2022-08-19T14:38:01;36.70;47.40
25188;DHT22;13141;50.414;8.050;2022-08-19T14:40:28;36.50;47.90
25188;DHT22;13141;50.414;8.050;2022-08-19T14:42:56;36.40;47.40
25188;DHT22;13141;50.414;8.050;2022-08-19T14:45:26;36.40;47.80
25188;DHT22;13141;50.414;8.050;2022-08-19T14:47:52;36.40;47.00
25188;DHT22;13141;50.414;8.050;2022-08-19T14:50:18;36.40;48.10
25188;DHT22;13141;50.414;8.050;2022-08-19T14:52:46;36.70;48.60
25188;DHT22;13141;50.414;8.050;2022-08-19T14:55:13;36.80;47.60
25188;DHT22;13141;50.414;8.050;2022-08-19T14:57:41;37.00;48.60
25188;DHT22;13141;50.414;8.050;2022-08-19T15:00:07;37.10;47.20
25188;DHT22;13141;50.414;8.050;2022-08-19T15:02:37;37.00;46.70
25188;DHT22;13141;50.414;8.050;2022-08-19T15:05:02;37.10;47.90
25188;DHT22;13141;50.414;8.050;2022-08-19T15:07:28;37.10;46.60
25188;DHT22;13141;50.414;8.050;2022-08-19T15:09:54;37.40;46.80
25188;DHT22;13141;50.414;8.050;2022-08-19T15:12:19;37.50;46.30
25188;DHT22;13141;50.414;8.050;2022-08-19T15:14:45;37.40;44.70
25188;DHT22;13141;50.414;8.050;2022-08-19T15:17:15;37.30;44.00
25188;DHT22;13141;50.414;8.050;2022-08-19T15:19:41;37.20;44.00
25188;DHT22;13141;50.414;8.050;2022-08-19T15:22:07;37.40;44.50
25188;DHT22;13141;50.414;8.050;2022-08-19T15:24:32;37.00;43.40
25188;DHT22;13141;50.414;8.050;2022-08-19T15:26:58;36.80;44.90
25188;DHT22;13141;50.414;8.050;2022-08-19T15:29:23;36.90;46.00
25188;DHT22;13141;50.414;8.050;2022-08-19T15:31:51;36.90;44.40
25188;DHT22;13141;50.414;8.050;2022-08-19T15:34:20;36.80;46.00
25188;DHT22;13141;50.414;8.050;2022-08-19T15:36:46;36.90;45.90
25188;DHT22;13141;50.414;8.050;2022-08-19T15:39:11;37.00;46.40